sensor_id;sensor_type;location;lat;lon;timestamp;pressure;altitude;pressure_sealevel;temperature;humidity
32298;BME280;18782;48.984;8.548;2023-10-13T00:01:04;99949.69;;;17.84;92.82
32298;BME280;18782;48.984;8.548;2023-10-13T00:03:33;99948.84;;;17.82;93.07
32298;BME280;18782;48.984;8.548;2023-10-13T00:06:03;99945.38;;;17.80;93.05
32298;BME280;18782;48.984;8.548;2023-10-13T00:08:34;99943.66;;;17.76;93.59
32298;BME280;18782;48.984;8.548;2023-10-13T00:11:04;99945.41;;;17.74;93.59
32298;BME280;18782;48.984;8.548;2023-10-13T00:13:32;99933.25;;;17.64;94.62
32298;BME280;18782;48.984;8.548;2023-10-13T00:16:09;99930.69;;;17.61;94.46
32298;BME280;18782;48.984;8.548;2023-10-13T00:18:43;99943.69;;;17.58;94.50
32298;BME280;18782;48.984;8.548;2023-10-13T00:21:11;99939.38;;;17.54;94.35
32298;BME280;18782;48.984;8.548;2023-10-13T00:23:47;99939.41;;;17.51;94.76
32298;BME280;18782;48.984;8.548;2023-10-13T00:26:22;99933.38;;;17.44;94.73
32298;BME280;18782;48.984;8.548;2023-10-13T00:28:58;99931.63;;;17.41;94.89
32298;BME280;18782;48.984;8.548;2023-10-13T00:31:36;99934.25;;;17.35;95.06
32298;BME280;18782;48.984;8.548;2023-10-13T00:34:07;99930.81;;;17.33;94.72
32298;BME280;18782;48.984;8.548;2023-10-13T00:36:38;99929.91;;;17.31;94.81
32298;BME280;18782;48.984;8.548;2023-10-13T00:39:16;99932.56;;;17.28;94.69
32298;BME280;18782;48.984;8.548;2023-10-13T00:41:44;99929.94;;;17.27;94.79
32298;BME280;18782;48.984;8.548;2023-10-13T00:44:19;99923.00;;;17.26;94.58
32298;BME280;18782;48.984;8.548;2023-10-13T00:46:55;99920.41;;;17.24;94.55
32298;BME280;18782;48.984;8.548;2023-10-13T00:49:23;99916.94;;;17.22;94.51
32298;BME280;18782;48.984;8.548;2023-10-13T00:51:51;99923.03;;;17.18;94.44
32298;BME280;18782;48.984;8.548;2023-10-13T00:54:19;99923.03;;;17.18;94.17
32298;BME280;18782;48.984;8.548;2023-10-13T00:56:53;99919.56;;;17.14;94.13
32298;BME280;18782;48.984;8.548;2023-10-13T00:59:30;99920.44;;;17.12;94.29
32298;BME280;18782;48.984;8.548;2023-10-13T01:02:03;99918.72;;;17.12;94.46
32298;BME280;18782;48.984;8.548;2023-10-13T01:04:52;99918.72;;;17.11;94.73
32298;BME280;18782;48.984;8.548;2023-10-13T01:07:21;99916.97;;;17.11;94.82
32298;BME280;18782;48.984;8.548;2023-10-13T01:09:52;99916.13;;;17.06;94.48
32298;BME280;18782;48.984;8.548;2023-10-13T01:12:21;99916.13;;;17.06;94.39
32298;BME280;18782;48.984;8.548;2023-10-13T01:14:50;99909.19;;;17.04;94.34
32298;BME280;18782;48.984;8.548;2023-10-13T01:17:18;99910.06;;;17.01;94.93
32298;BME280;18782;48.984;8.548;2023-10-13T01:19:44;99904.00;;;17.04;94.74
32298;BME280;18782;48.984;8.548;2023-10-13T01:22:15;99906.59;;;17.04;94.67
32298;BME280;18782;48.984;8.548;2023-10-13T01:24:43;99909.19;;;17.01;94.73
32298;BME280;18782;48.984;8.548;2023-10-13T01:27:12;99898.78;;;17.01;94.83
32298;BME280;18782;48.984;8.548;2023-10-13T01:29:44;99898.78;;;17.01;94.89
32298;BME280;18782;48.984;8.548;2023-10-13T01:32:14;99898.81;;;17.04;94.47
32298;BME280;18782;48.984;8.548;2023-10-13T01:34:42;99889.28;;;17.00;94.49
32298;BME280;18782;48.984;8.548;2023-10-13T01:37:13;99893.59;;;17.01;94.14
32298;BME280;18782;48.984;8.548;2023-10-13T01:39:44;99883.19;;;17.01;94.24
32298;BME280;18782;48.984;8.548;2023-10-13T01:42:14;99888.38;;;17.01;93.77
32298;BME280;18782;48.984;8.548;2023-10-13T01:44:46;99891.00;;;17.01;93.86
32298;BME280;18782;48.984;8.548;2023-10-13T01:47:14;99886.66;;;17.01;93.53
32298;BME280;18782;48.984;8.548;2023-10-13T01:49:42;99880.63;;;16.98;93.55
32298;BME280;18782;48.984;8.548;2023-10-13T01:52:14;99879.75;;;16.97;93.23
32298;BME280;18782;48.984;8.548;2023-10-13T01:54:46;99874.53;;;16.99;93.12
32298;BME280;18782;48.984;8.548;2023-10-13T01:57:16;99872.78;;;16.96;93.23
32298;BME280;18782;48.984;8.548;2023-10-13T01:59:44;99865.03;;;16.91;93.26
32298;BME280;18782;48.984;8.548;2023-10-13T02:02:12;99865.03;;;16.85;93.45
32298;BME280;18782;48.984;8.548;2023-10-13T02:04:39;99862.44;;;16.81;93.78
32298;BME280;18782;48.984;8.548;2023-10-13T02:07:09;99859.84;;;16.82;93.59
32298;BME280;18782;48.984;8.548;2023-10-13T02:09:41;99852.09;;;16.72;94.42
32298;BME280;18782;48.984;8.548;2023-10-13T02:12:11;99845.97;;;16.68;94.78
32298;BME280;18782;48.984;8.548;2023-10-13T02:14:37;99842.53;;;16.66;94.68
32298;BME280;18782;48.984;8.548;2023-10-13T02:17:05;99846.00;;;16.60;94.91
32298;BME280;18782;48.984;8.548;2023-10-13T02:19:43;99833.00;;;16.54;95.29
32298;BME280;18782;48.984;8.548;2023-10-13T02:22:12;99842.56;;;16.51;95.20
32298;BME280;18782;48.984;8.548;2023-10-13T02:24:51;99841.66;;;16.49;94.98
32298;BME280;18782;48.984;8.548;2023-10-13T02:27:20;99838.22;;;16.47;95.38
32298;BME280;18782;48.984;8.548;2023-10-13T02:29:50;99833.88;;;16.42;95.51
32298;BME280;18782;48.984;8.548;2023-10-13T02:32:25;99839.09;;;16.33;95.97
32298;BME280;18782;48.984;8.548;2023-10-13T02:34:53;99829.56;;;16.23;96.41
32298;BME280;18782;48.984;8.548;2023-10-13T02:37:24;99825.25;;;16.17;96.73
32298;BME280;18782;48.984;8.548;2023-10-13T02:39:51;99817.44;;;16.13;97.24
32298;BME280;18782;48.984;8.548;2023-10-13T02:42:20;99821.81;;;16.08;97.44
32298;BME280;18782;48.984;8.548;2023-10-13T02:44:50;99818.31;;;16.00;97.94
32298;BME280;18782;48.984;8.548;2023-10-13T02:47:18;99811.38;;;15.86;98.26
32298;BME280;18782;48.984;8.548;2023-10-13T02:49:46;99809.69;;;15.82;98.58
32298;BME280;18782;48.984;8.548;2023-10-13T02:52:14;99807.06;;;15.78;98.63
32298;BME280;18782;48.984;8.548;2023-10-13T02:54:42;99802.72;;;15.69;99.10
32298;BME280;18782;48.984;8.548;2023-10-13T02:57:14;99808.75;;;15.65;99.68
32298;BME280;18782;48.984;8.548;2023-10-13T02:59:45;99805.31;;;15.63;100.00
32298;BME280;18782;48.984;8.548;2023-10-13T03:02:14;99804.41;;;15.58;99.65
32298;BME280;18782;48.984;8.548;2023-10-13T03:04:46;99801.81;;;15.53;99.60
32298;BME280;18782;48.984;8.548;2023-10-13T03:07:14;99805.25;;;15.49;99.63
32298;BME280;18782;48.984;8.548;2023-10-13T03:09:48;99809.59;;;15.46;99.38
32298;BME280;18782;48.984;8.548;2023-10-13T03:12:19;99801.78;;;15.43;99.18
32298;BME280;18782;48.984;8.548;2023-10-13T03:14:47;99811.25;;;15.34;99.33
32298;BME280;18782;48.984;8.548;2023-10-13T03:17:15;99812.13;;;15.33;99.27
32298;BME280;18782;48.984;8.548;2023-10-13T03:19:44;99802.59;;;15.29;99.10
32298;BME280;18782;48.984;8.548;2023-10-13T03:22:17;99807.78;;;15.26;98.68
32298;BME280;18782;48.984;8.548;2023-10-13T03:24:45;99812.94;;;15.23;98.61
32298;BME280;18782;48.984;8.548;2023-10-13T03:27:13;99806.03;;;15.22;98.04
32298;BME280;18782;48.984;8.548;2023-10-13T03:29:44;99805.19;;;15.22;97.10
32298;BME280;18782;48.984;8.548;2023-10-13T03:32:14;99808.63;;;15.18;97.37
32298;BME280;18782;48.984;8.548;2023-10-13T03:34:43;99812.94;;;15.16;97.15
32298;BME280;18782;48.984;8.548;2023-10-13T03:37:21;99808.63;;;15.16;96.66
32298;BME280;18782;48.984;8.548;2023-10-13T03:40:05;99806.88;;;15.15;96.83
32298;BME280;18782;48.984;8.548;2023-10-13T03:42:42;99806.88;;;15.12;96.31
32298;BME280;18782;48.984;8.548;2023-10-13T03:45:20;99799.09;;;15.09;96.28
32298;BME280;18782;48.984;8.548;2023-10-13T03:47:53;99800.78;;;15.07;96.52
32298;BME280;18782;48.984;8.548;2023-10-13T03:50:20;99795.63;;;15.04;96.57
32298;BME280;18782;48.984;8.548;2023-10-13T03:52:55;99804.22;;;15.00;96.83
32298;BME280;18782;48.984;8.548;2023-10-13T03:55:24;99800.78;;;14.99;97.10
32298;BME280;18782;48.984;8.548;2023-10-13T03:57:55;99802.47;;;14.96;97.24
32298;BME280;18782;48.984;8.548;2023-10-13T04:00:27;99799.00;;;14.91;97.55
32298;BME280;18782;48.984;8.548;2023-10-13T04:02:56;99799.84;;;14.83;97.97
32298;BME280;18782;48.984;8.548;2023-10-13T04:05:36;99798.94;;;14.75;98.45
32298;BME280;18782;48.984;8.548;2023-10-13T04:08:11;99778.19;;;14.69;98.99
32298;BME280;18782;48.984;8.548;2023-10-13T04:10:57;99788.50;;;14.66;98.76
32298;BME280;18782;48.984;8.548;2023-10-13T04:13:54;99788.47;;;14.60;99.12
32298;BME280;18782;48.984;8.548;2023-10-13T04:16:44;99783.31;;;14.57;99.36
32298;BME280;18782;48.984;8.548;2023-10-13T04:19:22;99785.84;;;14.54;99.26
32298;BME280;18782;48.984;8.548;2023-10-13T04:21:51;99786.69;;;14.50;99.53
32298;BME280;18782;48.984;8.548;2023-10-13T04:24:26;99775.47;;;14.49;99.32
32298;BME280;18782;48.984;8.548;2023-10-13T04:27:26;99774.53;;;14.43;99.36
32298;BME280;18782;48.984;8.548;2023-10-13T04:30:07;99767.59;;;14.35;99.37
32298;BME280;18782;48.984;8.548;2023-10-13T04:32:51;99764.97;;;14.34;99.40
32298;BME280;18782;48.984;8.548;2023-10-13T04:35:44;99771.03;;;14.31;99.54
32298;BME280;18782;48.984;8.548;2023-10-13T04:38:25;99769.28;;;14.35;99.35
32298;BME280;18782;48.984;8.548;2023-10-13T04:41:00;99760.66;;;14.31;99.31
32298;BME280;18782;48.984;8.548;2023-10-13T04:43:28;99763.22;;;14.30;99.34
32298;BME280;18782;48.984;8.548;2023-10-13T04:46:23;99759.78;;;14.28;99.38
32298;BME280;18782;48.984;8.548;2023-10-13T04:49:21;99757.19;;;14.26;99.59
32298;BME280;18782;48.984;8.548;2023-10-13T04:51:57;99754.56;;;14.25;99.66
32298;BME280;18782;48.984;8.548;2023-10-13T04:54:40;99756.28;;;14.23;99.66
32298;BME280;18782;48.984;8.548;2023-10-13T04:57:12;99749.34;;;14.19;99.69
32298;BME280;18782;48.984;8.548;2023-10-13T05:00:02;99746.72;;;14.14;100.00
32298;BME280;18782;48.984;8.548;2023-10-13T05:02:48;99744.13;;;14.09;100.00
32298;BME280;18782;48.984;8.548;2023-10-13T05:05:42;99742.38;;;14.07;100.00
32298;BME280;18782;48.984;8.548;2023-10-13T05:08:34;99747.56;;;14.07;100.00
32298;BME280;18782;48.984;8.548;2023-10-13T05:11:19;99743.22;;;14.06;100.00
32298;BME280;18782;48.984;8.548;2023-10-13T05:14:04;99737.16;;;14.04;100.00
32298;BME280;18782;48.984;8.548;2023-10-13T05:16:50;99732.84;;;14.00;100.00
32298;BME280;18782;48.984;8.548;2023-10-13T05:19:35;99729.34;;;13.98;100.00
32298;BME280;18782;48.984;8.548;2023-10-13T05:22:20;99733.63;;;13.93;100.00
32298;BME280;18782;48.984;8.548;2023-10-13T05:25:07;99738.84;;;13.96;100.00
32298;BME280;18782;48.984;8.548;2023-10-13T05:27:52;99738.81;;;13.91;100.00
32298;BME280;18782;48.984;8.548;2023-10-13T05:30:59;99748.25;;;13.88;100.00
32298;BME280;18782;48.984;8.548;2023-10-13T05:33:44;99743.03;;;13.81;100.00
32298;BME280;18782;48.984;8.548;2023-10-13T05:36:29;99743.03;;;13.81;100.00
32298;BME280;18782;48.984;8.548;2023-10-13T05:39:15;99736.97;;;13.75;100.00
32298;BME280;18782;48.984;8.548;2023-10-13T05:42:01;99736.09;;;13.74;100.00
32298;BME280;18782;48.984;8.548;2023-10-13T05:44:47;99749.88;;;13.73;100.00
32298;BME280;18782;48.984;8.548;2023-10-13T05:47:23;99746.44;;;13.77;100.00
32298;BME280;18782;48.984;8.548;2023-10-13T05:50:13;99749.88;;;13.73;100.00
32298;BME280;18782;48.984;8.548;2023-10-13T05:52:55;99743.81;;;13.73;100.00
32298;BME280;18782;48.984;8.548;2023-10-13T05:55:40;99755.06;;;13.76;100.00
32298;BME280;18782;48.984;8.548;2023-10-13T05:58:27;99737.81;;;13.75;100.00
32298;BME280;18782;48.984;8.548;2023-10-13T06:01:13;99745.63;;;13.78;100.00
32298;BME280;18782;48.984;8.548;2023-10-13T06:03:58;99746.44;;;13.77;100.00
32298;BME280;18782;48.984;8.548;2023-10-13T06:06:43;99746.44;;;13.77;100.00
32298;BME280;18782;48.984;8.548;2023-10-13T06:09:29;99745.59;;;13.77;100.00
32298;BME280;18782;48.984;8.548;2023-10-13T06:12:14;99750.75;;;13.75;100.00
32298;BME280;18782;48.984;8.548;2023-10-13T06:15:01;99744.72;;;13.73;100.00
32298;BME280;18782;48.984;8.548;2023-10-13T06:17:46;99749.94;;;13.82;100.00
32298;BME280;18782;48.984;8.548;2023-10-13T06:20:32;99742.13;;;13.78;100.00
32298;BME280;18782;48.984;8.548;2023-10-13T06:23:17;99744.81;;;13.86;100.00
32298;BME280;18782;48.984;8.548;2023-10-13T06:26:02;99755.16;;;13.84;100.00
32298;BME280;18782;48.984;8.548;2023-10-13T06:28:47;99756.88;;;13.85;100.00
32298;BME280;18782;48.984;8.548;2023-10-13T06:31:17;99754.28;;;13.85;100.00
32298;BME280;18782;48.984;8.548;2023-10-13T06:33:49;99750.84;;;13.88;100.00
32298;BME280;18782;48.984;8.548;2023-10-13T06:36:17;99745.69;;;13.89;100.00
32298;BME280;18782;48.984;8.548;2023-10-13T06:38:45;99746.56;;;13.90;100.00
32298;BME280;18782;48.984;8.548;2023-10-13T06:41:21;99749.97;;;13.87;100.00
32298;BME280;18782;48.984;8.548;2023-10-13T06:43:57;99746.53;;;13.87;100.00
32298;BME280;18782;48.984;8.548;2023-10-13T06:46:33;99752.59;;;13.92;100.00
32298;BME280;18782;48.984;8.548;2023-10-13T06:49:01;99748.31;;;13.94;99.97
32298;BME280;18782;48.984;8.548;2023-10-13T06:51:29;99744.03;;;13.96;100.00
32298;BME280;18782;48.984;8.548;2023-10-13T06:54:05;99750.94;;;13.98;100.00
32298;BME280;18782;48.984;8.548;2023-10-13T06:56:46;99743.19;;;14.03;100.00
32298;BME280;18782;48.984;8.548;2023-10-13T06:59:17;99747.56;;;14.07;99.84
32298;BME280;18782;48.984;8.548;2023-10-13T07:01:47;99749.31;;;14.14;99.22
32298;BME280;18782;48.984;8.548;2023-10-13T07:04:15;99754.56;;;14.20;99.21
32298;BME280;18782;48.984;8.548;2023-10-13T07:06:44;99753.69;;;14.24;99.30
32298;BME280;18782;48.984;8.548;2023-10-13T07:09:14;99755.50;;;14.34;99.12
32298;BME280;18782;48.984;8.548;2023-10-13T07:12:06;99756.38;;;14.40;98.59
32298;BME280;18782;48.984;8.548;2023-10-13T07:14:46;99745.19;;;14.44;98.38
32298;BME280;18782;48.984;8.548;2023-10-13T07:17:20;99746.97;;;14.51;98.37
32298;BME280;18782;48.984;8.548;2023-10-13T07:19:52;99747.91;;;14.60;98.48
32298;BME280;18782;48.984;8.548;2023-10-13T07:22:21;99742.75;;;14.67;97.92
32298;BME280;18782;48.984;8.548;2023-10-13T07:24:50;99741.06;;;14.73;97.42
32298;BME280;18782;48.984;8.548;2023-10-13T07:27:19;99745.41;;;14.86;97.00
32298;BME280;18782;48.984;8.548;2023-10-13T07:29:55;99742.88;;;14.94;96.33
32298;BME280;18782;48.984;8.548;2023-10-13T07:32:41;99733.41;;;15.04;96.55
32298;BME280;18782;48.984;8.548;2023-10-13T07:35:15;99729.09;;;15.13;95.75
32298;BME280;18782;48.984;8.548;2023-10-13T07:37:44;99728.25;;;15.22;95.00
32298;BME280;18782;48.984;8.548;2023-10-13T07:40:15;99729.13;;;15.33;95.25
32298;BME280;18782;48.984;8.548;2023-10-13T07:43:06;99724.84;;;15.48;95.22
32298;BME280;18782;48.984;8.548;2023-10-13T07:45:37;99723.97;;;15.59;94.65
32298;BME280;18782;48.984;8.548;2023-10-13T07:48:10;99724.91;;;15.66;93.95
32298;BME280;18782;48.984;8.548;2023-10-13T07:50:45;99718.81;;;15.79;93.75
32298;BME280;18782;48.984;8.548;2023-10-13T07:53:13;99719.66;;;15.97;92.20
32298;BME280;18782;48.984;8.548;2023-10-13T07:55:49;99713.59;;;16.05;91.58
32298;BME280;18782;48.984;8.548;2023-10-13T07:58:22;99714.47;;;16.15;91.71
32298;BME280;18782;48.984;8.548;2023-10-13T08:00:52;99715.31;;;16.26;91.08
32298;BME280;18782;48.984;8.548;2023-10-13T08:03:34;99716.13;;;16.42;90.48
32298;BME280;18782;48.984;8.548;2023-10-13T08:06:10;99715.22;;;16.54;90.73
32298;BME280;18782;48.984;8.548;2023-10-13T08:08:48;99717.78;;;16.66;90.61
32298;BME280;18782;48.984;8.548;2023-10-13T08:11:22;99720.38;;;16.77;89.88
32298;BME280;18782;48.984;8.548;2023-10-13T08:13:59;99721.19;;;16.83;89.72
32298;BME280;18782;48.984;8.548;2023-10-13T08:16:56;99707.25;;;17.00;89.32
32298;BME280;18782;48.984;8.548;2023-10-13T08:19:28;99711.53;;;17.10;88.37
32298;BME280;18782;48.984;8.548;2023-10-13T08:22:06;99716.66;;;17.20;87.64
32298;BME280;18782;48.984;8.548;2023-10-13T08:24:50;99711.41;;;17.27;87.35
32298;BME280;18782;48.984;8.548;2023-10-13T08:27:41;99713.97;;;17.34;87.25
32298;BME280;18782;48.984;8.548;2023-10-13T08:30:52;99723.44;;;17.49;87.39
32298;BME280;18782;48.984;8.548;2023-10-13T08:33:20;99714.66;;;17.58;86.79
32298;BME280;18782;48.984;8.548;2023-10-13T08:35:53;99713.75;;;17.63;87.33
32298;BME280;18782;48.984;8.548;2023-10-13T08:38:54;99713.72;;;17.68;85.80
32298;BME280;18782;48.984;8.548;2023-10-13T08:41:22;99715.38;;;17.81;86.29
32298;BME280;18782;48.984;8.548;2023-10-13T08:44:02;99716.09;;;17.98;85.78
32298;BME280;18782;48.984;8.548;2023-10-13T08:46:36;99708.13;;;18.14;85.59
32298;BME280;18782;48.984;8.548;2023-10-13T08:49:32;99701.00;;;18.31;83.83
32298;BME280;18782;48.984;8.548;2023-10-13T08:52:14;99700.03;;;18.40;82.41
32298;BME280;18782;48.984;8.548;2023-10-13T08:55:00;99700.75;;;18.52;82.07
32298;BME280;18782;48.984;8.548;2023-10-13T08:58:00;99703.22;;;18.63;81.33
32298;BME280;18782;48.984;8.548;2023-10-13T09:00:41;99701.28;;;18.82;80.74
32298;BME280;18782;48.984;8.548;2023-10-13T09:03:38;99698.50;;;18.94;83.49
32298;BME280;18782;48.984;8.548;2023-10-13T09:06:12;99697.53;;;19.03;83.98
32298;BME280;18782;48.984;8.548;2023-10-13T09:08:42;99696.59;;;19.09;84.80
32298;BME280;18782;48.984;8.548;2023-10-13T09:11:32;99698.22;;;19.16;84.31
32298;BME280;18782;48.984;8.548;2023-10-13T09:14:15;99684.19;;;19.23;83.03
32298;BME280;18782;48.984;8.548;2023-10-13T09:17:02;99684.94;;;19.33;85.35
32298;BME280;18782;48.984;8.548;2023-10-13T09:19:46;99684.84;;;19.39;85.63
32298;BME280;18782;48.984;8.548;2023-10-13T09:22:22;99681.22;;;19.47;85.72
32298;BME280;18782;48.984;8.548;2023-10-13T09:25:04;99666.38;;;19.49;82.88
32298;BME280;18782;48.984;8.548;2023-10-13T09:27:33;99667.91;;;19.63;82.14
32298;BME280;18782;48.984;8.548;2023-10-13T09:30:01;99659.75;;;19.83;81.59
32298;BME280;18782;48.984;8.548;2023-10-13T09:32:36;99661.31;;;19.94;78.79
32298;BME280;18782;48.984;8.548;2023-10-13T09:35:16;99662.66;;;20.15;78.76
32298;BME280;18782;48.984;8.548;2023-10-13T09:37:45;99661.16;;;20.45;nan
32298;BME280;18782;48.984;8.548;2023-10-13T09:40:17;99658.97;;;20.69;74.87
32298;BME280;18782;48.984;8.548;2023-10-13T09:42:55;99656.69;;;20.94;72.73
32298;BME280;18782;48.984;8.548;2023-10-13T09:45:28;99648.34;;;21.15;70.62
32298;BME280;18782;48.984;8.548;2023-10-13T09:48:01;99647.78;;;21.40;69.51
32298;BME280;18782;48.984;8.548;2023-10-13T09:50:36;99641.97;;;21.62;67.85
32298;BME280;18782;48.984;8.548;2023-10-13T09:53:07;99642.78;;;21.99;67.03
32298;BME280;18782;48.984;8.548;2023-10-13T09:55:41;99639.53;;;22.22;65.03
32298;BME280;18782;48.984;8.548;2023-10-13T09:58:13;99637.81;;;22.52;63.81
32298;BME280;18782;48.984;8.548;2023-10-13T10:00:44;99635.00;;;22.87;63.09
32298;BME280;18782;48.984;8.548;2023-10-13T10:03:22;99634.94;;;23.18;59.56
32298;BME280;18782;48.984;8.548;2023-10-13T10:06:08;99630.97;;;23.58;57.97
32298;BME280;18782;48.984;8.548;2023-10-13T10:08:43;99633.97;;;23.74;57.99
32298;BME280;18782;48.984;8.548;2023-10-13T10:11:42;99633.88;;;24.02;55.75
32298;BME280;18782;48.984;8.548;2023-10-13T10:14:16;99630.81;;;24.38;54.83
32298;BME280;18782;48.984;8.548;2023-10-13T10:17:04;99632.09;;;24.75;54.31
32298;BME280;18782;48.984;8.548;2023-10-13T10:19:46;99624.59;;;25.09;53.87
32298;BME280;18782;48.984;8.548;2023-10-13T10:22:25;99624.09;;;25.43;53.17
32298;BME280;18782;48.984;8.548;2023-10-13T10:24:57;99621.31;;;25.67;50.43
32298;BME280;18782;48.984;8.548;2023-10-13T10:27:28;99611.78;;;26.05;48.07
32298;BME280;18782;48.984;8.548;2023-10-13T10:29:57;99607.25;;;26.27;47.20
32298;BME280;18782;48.984;8.548;2023-10-13T10:32:35;99608.09;;;26.48;41.30
32298;BME280;18782;48.984;8.548;2023-10-13T10:35:05;99603.09;;;26.61;41.40
32298;BME280;18782;48.984;8.548;2023-10-13T10:37:36;99604.44;;;26.89;41.10
32298;BME280;18782;48.984;8.548;2023-10-13T10:40:07;99590.97;;;27.12;38.72
32298;BME280;18782;48.984;8.548;2023-10-13T10:42:37;99593.34;;;27.36;39.67
32298;BME280;18782;48.984;8.548;2023-10-13T10:45:08;99581.13;;;27.50;35.42
32298;BME280;18782;48.984;8.548;2023-10-13T10:47:47;99586.81;;;27.60;34.99
32298;BME280;18782;48.984;8.548;2023-10-13T10:50:25;99589.47;;;27.77;34.71
32298;BME280;18782;48.984;8.548;2023-10-13T10:53:04;99585.72;;;27.99;34.07
32298;BME280;18782;48.984;8.548;2023-10-13T10:55:36;99575.13;;;27.99;33.61
32298;BME280;18782;48.984;8.548;2023-10-13T10:58:05;99575.22;;;28.13;32.93
32298;BME280;18782;48.984;8.548;2023-10-13T11:00:33;99590.09;;;28.16;32.31
32298;BME280;18782;48.984;8.548;2023-10-13T11:03:12;99576.28;;;28.26;33.55
32298;BME280;18782;48.984;8.548;2023-10-13T11:05:44;99596.25;;;28.32;33.12
32298;BME280;18782;48.984;8.548;2023-10-13T11:08:23;99577.69;;;28.33;33.00
32298;BME280;18782;48.984;8.548;2023-10-13T11:10:58;99592.38;;;28.39;32.79
32298;BME280;18782;48.984;8.548;2023-10-13T11:13:40;99585.88;;;28.45;32.81
32298;BME280;18782;48.984;8.548;2023-10-13T11:16:19;99570.28;;;28.56;31.69
32298;BME280;18782;48.984;8.548;2023-10-13T11:18:59;99579.94;;;28.73;31.40
32298;BME280;18782;48.984;8.548;2023-10-13T11:21:29;99570.88;;;28.61;32.44
32298;BME280;18782;48.984;8.548;2023-10-13T11:23:58;99574.63;;;28.57;31.71
32298;BME280;18782;48.984;8.548;2023-10-13T11:26:35;99544.78;;;28.85;33.27
32298;BME280;18782;48.984;8.548;2023-10-13T11:29:04;99547.28;;;29.04;33.64
32298;BME280;18782;48.984;8.548;2023-10-13T11:31:37;99535.78;;;29.33;34.14
32298;BME280;18782;48.984;8.548;2023-10-13T11:34:05;99539.00;;;29.69;33.41
32298;BME280;18782;48.984;8.548;2023-10-13T11:36:33;99545.06;;;29.56;29.16
32298;BME280;18782;48.984;8.548;2023-10-13T11:39:01;99551.13;;;29.28;29.18
32298;BME280;18782;48.984;8.548;2023-10-13T11:41:32;99527.25;;;29.28;30.59
32298;BME280;18782;48.984;8.548;2023-10-13T11:44:05;99530.59;;;29.76;30.31
32298;BME280;18782;48.984;8.548;2023-10-13T11:46:39;99528.69;;;30.07;28.82
32298;BME280;18782;48.984;8.548;2023-10-13T11:49:21;99539.91;;;30.53;27.71
32298;BME280;18782;48.984;8.548;2023-10-13T11:52:00;99529.41;;;30.52;27.65
32298;BME280;18782;48.984;8.548;2023-10-13T11:54:43;99516.69;;;30.57;27.68
32298;BME280;18782;48.984;8.548;2023-10-13T11:57:13;99503.28;;;30.58;27.84
32298;BME280;18782;48.984;8.548;2023-10-13T11:59:44;99503.38;;;30.71;27.75
32298;BME280;18782;48.984;8.548;2023-10-13T12:02:20;99517.97;;;31.18;27.18
32298;BME280;18782;48.984;8.548;2023-10-13T12:05:06;99510.47;;;30.98;26.70
32298;BME280;18782;48.984;8.548;2023-10-13T12:07:39;99498.94;;;31.24;26.64
32298;BME280;18782;48.984;8.548;2023-10-13T12:10:15;99503.91;;;31.16;26.54
32298;BME280;18782;48.984;8.548;2023-10-13T12:12:47;99488.47;;;31.48;26.11
32298;BME280;18782;48.984;8.548;2023-10-13T12:15:21;99487.03;;;32.06;25.14
32298;BME280;18782;48.984;8.548;2023-10-13T12:18:00;99485.22;;;32.07;25.37
32298;BME280;18782;48.984;8.548;2023-10-13T12:20:30;99487.59;;;31.60;25.77
32298;BME280;18782;48.984;8.548;2023-10-13T12:23:02;99480.34;;;31.75;25.42
32298;BME280;18782;48.984;8.548;2023-10-13T12:25:43;99478.56;;;31.50;25.37
32298;BME280;18782;48.984;8.548;2023-10-13T12:28:40;99469.97;;;32.09;26.08
32298;BME280;18782;48.984;8.548;2023-10-13T12:31:18;99469.84;;;32.23;25.40
32298;BME280;18782;48.984;8.548;2023-10-13T12:33:53;99467.84;;;32.51;24.96
32298;BME280;18782;48.984;8.548;2023-10-13T12:36:24;99453.94;;;32.82;24.46
32298;BME280;18782;48.984;8.548;2023-10-13T12:38:57;99457.47;;;33.29;24.38
32298;BME280;18782;48.984;8.548;2023-10-13T12:41:54;99460.22;;;33.74;23.63
32298;BME280;18782;48.984;8.548;2023-10-13T12:44:39;99440.56;;;33.64;23.22
32298;BME280;18782;48.984;8.548;2023-10-13T12:47:26;99451.22;;;33.97;24.23
32298;BME280;18782;48.984;8.548;2023-10-13T12:50:11;99443.22;;;33.64;26.63
32298;BME280;18782;48.984;8.548;2023-10-13T12:52:52;99449.03;;;32.65;23.85
32298;BME280;18782;48.984;8.548;2023-10-13T12:55:20;99436.72;;;32.51;24.65
32298;BME280;18782;48.984;8.548;2023-10-13T12:57:51;99442.19;;;32.85;23.27
32298;BME280;18782;48.984;8.548;2023-10-13T13:00:19;99430.41;;;32.76;24.05
32298;BME280;18782;48.984;8.548;2023-10-13T13:03:01;99423.09;;;33.60;24.75
32298;BME280;18782;48.984;8.548;2023-10-13T13:05:38;99417.59;;;34.06;22.68
32298;BME280;18782;48.984;8.548;2023-10-13T13:08:12;99420.56;;;34.99;22.63
32298;BME280;18782;48.984;8.548;2023-10-13T13:10:49;99421.09;;;34.82;21.36
32298;BME280;18782;48.984;8.548;2023-10-13T13:13:17;99410.53;;;34.60;22.86
32298;BME280;18782;48.984;8.548;2023-10-13T13:15:51;99413.50;;;34.77;23.31
32298;BME280;18782;48.984;8.548;2023-10-13T13:18:20;99419.00;;;35.48;21.02
32298;BME280;18782;48.984;8.548;2023-10-13T13:20:48;99428.59;;;34.99;21.32
32298;BME280;18782;48.984;8.548;2023-10-13T13:23:21;99413.50;;;34.77;22.82
32298;BME280;18782;48.984;8.548;2023-10-13T13:25:53;99411.47;;;35.12;21.65
32298;BME280;18782;48.984;8.548;2023-10-13T13:28:23;99400.53;;;35.15;21.68
32298;BME280;18782;48.984;8.548;2023-10-13T13:30:55;99389.28;;;35.21;21.13
32298;BME280;18782;48.984;8.548;2023-10-13T13:33:24;99390.72;;;35.25;22.01
32298;BME280;18782;48.984;8.548;2023-10-13T13:35:55;99386.75;;;35.50;22.38
32298;BME280;18782;48.984;8.548;2023-10-13T13:38:26;99371.59;;;36.10;22.91
32298;BME280;18782;48.984;8.548;2023-10-13T13:40:58;99372.13;;;37.01;22.75
32298;BME280;18782;48.984;8.548;2023-10-13T13:43:28;99363.63;;;37.15;19.64
32298;BME280;18782;48.984;8.548;2023-10-13T13:46:04;99360.88;;;37.62;19.77